sensor_id;sensor_type;location;lat;lon;timestamp;temperature;humidity
84176;DHT22;74306;40.114;18.304;2023-12-28T00:00:34;8.80;88.50
84176;DHT22;74306;40.114;18.304;2023-12-28T00:03:03;8.80;88.60
84176;DHT22;74306;40.114;18.304;2023-12-28T00:05:33;8.80;88.10
84176;DHT22;74306;40.114;18.304;2023-12-28T00:08:02;8.90;87.80
84176;DHT22;74306;40.114;18.304;2023-12-28T00:10:32;8.90;87.60
84176;DHT22;74306;40.114;18.304;2023-12-28T00:13:03;8.90;87.70
84176;DHT22;74306;40.114;18.304;2023-12-28T00:15:33;8.90;87.60
84176;DHT22;74306;40.114;18.304;2023-12-28T00:18:03;8.80;87.60
84176;DHT22;74306;40.114;18.304;2023-12-28T00:20:33;8.90;88.10
84176;DHT22;74306;40.114;18.304;2023-12-28T00:23:03;8.90;87.80
84176;DHT22;74306;40.114;18.304;2023-12-28T00:25:34;8.80;88.10
84176;DHT22;74306;40.114;18.304;2023-12-28T00:28:05;8.90;88.20
84176;DHT22;74306;40.114;18.304;2023-12-28T00:30:34;9.10;87.90
84176;DHT22;74306;40.114;18.304;2023-12-28T00:33:04;9.20;87.50
84176;DHT22;74306;40.114;18.304;2023-12-28T00:35:34;9.20;87.40
84176;DHT22;74306;40.114;18.304;2023-12-28T00:38:03;9.20;87.40
84176;DHT22;74306;40.114;18.304;2023-12-28T00:40:33;9.30;87.20
84176;DHT22;74306;40.114;18.304;2023-12-28T00:43:02;9.30;86.90
84176;DHT22;74306;40.114;18.304;2023-12-28T00:45:33;9.20;87.10
84176;DHT22;74306;40.114;18.304;2023-12-28T00:48:03;9.20;87.10
84176;DHT22;74306;40.114;18.304;2023-12-28T00:50:32;9.20;87.00
84176;DHT22;74306;40.114;18.304;2023-12-28T00:53:02;9.30;86.90
84176;DHT22;74306;40.114;18.304;2023-12-28T00:55:31;9.20;87.30
84176;DHT22;74306;40.114;18.304;2023-12-28T00:58:01;9.30;87.20
84176;DHT22;74306;40.114;18.304;2023-12-28T01:00:30;9.20;87.10
84176;DHT22;74306;40.114;18.304;2023-12-28T01:03:01;9.20;87.20
84176;DHT22;74306;40.114;18.304;2023-12-28T01:05:31;9.20;86.90
84176;DHT22;74306;40.114;18.304;2023-12-28T01:08:01;9.20;87.10
84176;DHT22;74306;40.114;18.304;2023-12-28T01:10:30;9.10;87.30
84176;DHT22;74306;40.114;18.304;2023-12-28T01:13:00;9.10;87.40
84176;DHT22;74306;40.114;18.304;2023-12-28T01:15:29;9.10;87.30
84176;DHT22;74306;40.114;18.304;2023-12-28T01:17:58;9.00;87.90
84176;DHT22;74306;40.114;18.304;2023-12-28T01:20:29;9.00;87.80
84176;DHT22;74306;40.114;18.304;2023-12-28T01:22:59;9.00;87.80
84176;DHT22;74306;40.114;18.304;2023-12-28T01:25:28;9.10;88.00
84176;DHT22;74306;40.114;18.304;2023-12-28T01:27:58;9.10;88.10
84176;DHT22;74306;40.114;18.304;2023-12-28T01:30:27;9.10;87.90
84176;DHT22;74306;40.114;18.304;2023-12-28T01:32:57;9.10;88.00
84176;DHT22;74306;40.114;18.304;2023-12-28T01:35:26;9.10;87.90
84176;DHT22;74306;40.114;18.304;2023-12-28T01:37:57;9.20;88.10
84176;DHT22;74306;40.114;18.304;2023-12-28T01:40:28;9.30;87.80
84176;DHT22;74306;40.114;18.304;2023-12-28T01:42:57;9.30;87.90
84176;DHT22;74306;40.114;18.304;2023-12-28T01:45:26;9.20;87.80
84176;DHT22;74306;40.114;18.304;2023-12-28T01:47:58;9.30;87.80
84176;DHT22;74306;40.114;18.304;2023-12-28T01:50:28;9.20;87.80
84176;DHT22;74306;40.114;18.304;2023-12-28T01:53:01;9.10;87.90
84176;DHT22;74306;40.114;18.304;2023-12-28T01:55:31;9.20;88.20
84176;DHT22;74306;40.114;18.304;2023-12-28T01:58:01;9.20;88.10
84176;DHT22;74306;40.114;18.304;2023-12-28T02:00:31;9.30;88.40
84176;DHT22;74306;40.114;18.304;2023-12-28T02:03:03;9.30;88.40
84176;DHT22;74306;40.114;18.304;2023-12-28T02:05:35;9.30;88.40
84176;DHT22;74306;40.114;18.304;2023-12-28T02:08:06;9.30;88.40
84176;DHT22;74306;40.114;18.304;2023-12-28T02:10:36;9.20;88.80
84176;DHT22;74306;40.114;18.304;2023-12-28T02:13:05;9.20;88.60
84176;DHT22;74306;40.114;18.304;2023-12-28T02:15:35;9.20;88.60
84176;DHT22;74306;40.114;18.304;2023-12-28T02:18:09;9.20;88.60
84176;DHT22;74306;40.114;18.304;2023-12-28T02:20:41;9.30;88.40
84176;DHT22;74306;40.114;18.304;2023-12-28T02:23:12;9.30;88.20
84176;DHT22;74306;40.114;18.304;2023-12-28T02:25:45;9.40;88.10
84176;DHT22;74306;40.114;18.304;2023-12-28T02:28:14;9.50;88.30
84176;DHT22;74306;40.114;18.304;2023-12-28T02:30:44;9.50;88.30
84176;DHT22;74306;40.114;18.304;2023-12-28T02:33:21;9.50;88.20
84176;DHT22;74306;40.114;18.304;2023-12-28T02:35:57;9.60;88.10
84176;DHT22;74306;40.114;18.304;2023-12-28T02:38:29;9.60;88.30
84176;DHT22;74306;40.114;18.304;2023-12-28T02:41:01;9.40;88.40
84176;DHT22;74306;40.114;18.304;2023-12-28T02:43:32;9.40;88.50
84176;DHT22;74306;40.114;18.304;2023-12-28T02:46:01;9.40;88.10
84176;DHT22;74306;40.114;18.304;2023-12-28T02:48:30;9.30;88.10
84176;DHT22;74306;40.114;18.304;2023-12-28T02:51:00;9.30;87.70
84176;DHT22;74306;40.114;18.304;2023-12-28T02:53:30;9.20;87.80
84176;DHT22;74306;40.114;18.304;2023-12-28T02:56:01;9.10;87.90
84176;DHT22;74306;40.114;18.304;2023-12-28T02:58:30;9.20;87.60
84176;DHT22;74306;40.114;18.304;2023-12-28T03:01:00;9.10;87.60
84176;DHT22;74306;40.114;18.304;2023-12-28T03:03:29;9.10;87.60
84176;DHT22;74306;40.114;18.304;2023-12-28T03:05:58;9.10;87.40
84176;DHT22;74306;40.114;18.304;2023-12-28T03:08:27;9.10;87.40
84176;DHT22;74306;40.114;18.304;2023-12-28T03:10:57;9.00;87.70
84176;DHT22;74306;40.114;18.304;2023-12-28T03:13:28;9.00;88.00
84176;DHT22;74306;40.114;18.304;2023-12-28T03:15:57;8.90;87.80
84176;DHT22;74306;40.114;18.304;2023-12-28T03:18:26;9.00;87.70
84176;DHT22;74306;40.114;18.304;2023-12-28T03:20:56;9.00;87.60
84176;DHT22;74306;40.114;18.304;2023-12-28T03:23:25;9.10;87.50
84176;DHT22;74306;40.114;18.304;2023-12-28T03:25:55;9.10;87.40
84176;DHT22;74306;40.114;18.304;2023-12-28T03:28:24;9.10;87.10
84176;DHT22;74306;40.114;18.304;2023-12-28T03:30:55;9.00;87.40
84176;DHT22;74306;40.114;18.304;2023-12-28T03:33:24;8.90;87.80
84176;DHT22;74306;40.114;18.304;2023-12-28T03:35:55;9.00;87.80
84176;DHT22;74306;40.114;18.304;2023-12-28T03:38:24;8.90;88.10
84176;DHT22;74306;40.114;18.304;2023-12-28T03:40:54;9.00;87.90
84176;DHT22;74306;40.114;18.304;2023-12-28T03:43:23;9.00;88.00
84176;DHT22;74306;40.114;18.304;2023-12-28T03:45:52;9.10;87.90
84176;DHT22;74306;40.114;18.304;2023-12-28T03:48:23;9.10;87.80
84176;DHT22;74306;40.114;18.304;2023-12-28T03:50:53;9.10;88.00
84176;DHT22;74306;40.114;18.304;2023-12-28T03:53:22;9.10;87.80
84176;DHT22;74306;40.114;18.304;2023-12-28T03:55:51;9.10;87.80
84176;DHT22;74306;40.114;18.304;2023-12-28T03:58:21;9.10;88.00
84176;DHT22;74306;40.114;18.304;2023-12-28T04:00:49;9.10;87.90
84176;DHT22;74306;40.114;18.304;2023-12-28T04:03:19;9.30;87.80
84176;DHT22;74306;40.114;18.304;2023-12-28T04:05:51;9.30;87.70
84176;DHT22;74306;40.114;18.304;2023-12-28T04:08:20;9.30;87.50
84176;DHT22;74306;40.114;18.304;2023-12-28T04:10:49;9.20;87.90
84176;DHT22;74306;40.114;18.304;2023-12-28T04:13:19;9.20;88.20
84176;DHT22;74306;40.114;18.304;2023-12-28T04:15:48;9.20;88.30
84176;DHT22;74306;40.114;18.304;2023-12-28T04:18:17;9.20;88.40
84176;DHT22;74306;40.114;18.304;2023-12-28T04:20:47;9.30;88.10
84176;DHT22;74306;40.114;18.304;2023-12-28T04:23:17;9.20;88.20
84176;DHT22;74306;40.114;18.304;2023-12-28T04:25:47;9.20;88.40
84176;DHT22;74306;40.114;18.304;2023-12-28T04:28:16;9.20;88.50
84176;DHT22;74306;40.114;18.304;2023-12-28T04:30:46;9.30;88.10
84176;DHT22;74306;40.114;18.304;2023-12-28T04:33:17;9.30;87.90
84176;DHT22;74306;40.114;18.304;2023-12-28T04:35:48;9.30;88.00
84176;DHT22;74306;40.114;18.304;2023-12-28T04:38:18;9.30;88.10
84176;DHT22;74306;40.114;18.304;2023-12-28T04:40:48;9.30;88.30
84176;DHT22;74306;40.114;18.304;2023-12-28T04:43:17;9.30;88.30
84176;DHT22;74306;40.114;18.304;2023-12-28T04:45:46;9.30;88.10
84176;DHT22;74306;40.114;18.304;2023-12-28T04:48:16;9.20;88.20
84176;DHT22;74306;40.114;18.304;2023-12-28T04:50:48;9.20;88.30
84176;DHT22;74306;40.114;18.304;2023-12-28T04:53:19;9.20;88.30
84176;DHT22;74306;40.114;18.304;2023-12-28T04:55:49;9.10;88.60
84176;DHT22;74306;40.114;18.304;2023-12-28T04:58:18;9.10;88.60
84176;DHT22;74306;40.114;18.304;2023-12-28T05:00:47;9.20;88.60
84176;DHT22;74306;40.114;18.304;2023-12-28T05:03:18;9.20;88.50
84176;DHT22;74306;40.114;18.304;2023-12-28T05:05:49;9.10;88.60
84176;DHT22;74306;40.114;18.304;2023-12-28T05:08:19;9.00;88.90
84176;DHT22;74306;40.114;18.304;2023-12-28T05:10:48;9.00;89.10
84176;DHT22;74306;40.114;18.304;2023-12-28T05:13:18;9.10;88.60
84176;DHT22;74306;40.114;18.304;2023-12-28T05:15:47;9.20;88.20
84176;DHT22;74306;40.114;18.304;2023-12-28T05:18:17;9.20;88.20
84176;DHT22;74306;40.114;18.304;2023-12-28T05:20:46;9.20;88.60
84176;DHT22;74306;40.114;18.304;2023-12-28T05:23:15;9.20;88.70
84176;DHT22;74306;40.114;18.304;2023-12-28T05:25:46;9.20;88.90
84176;DHT22;74306;40.114;18.304;2023-12-28T05:28:16;9.20;89.10
84176;DHT22;74306;40.114;18.304;2023-12-28T05:30:46;9.30;88.90
84176;DHT22;74306;40.114;18.304;2023-12-28T05:33:15;9.30;88.90
84176;DHT22;74306;40.114;18.304;2023-12-28T05:35:45;9.30;88.80
84176;DHT22;74306;40.114;18.304;2023-12-28T05:38:14;9.30;88.80
84176;DHT22;74306;40.114;18.304;2023-12-28T05:40:44;9.30;89.00
84176;DHT22;74306;40.114;18.304;2023-12-28T05:43:15;9.40;89.00
84176;DHT22;74306;40.114;18.304;2023-12-28T05:45:44;9.40;88.70
84176;DHT22;74306;40.114;18.304;2023-12-28T05:48:14;9.30;88.70
84176;DHT22;74306;40.114;18.304;2023-12-28T05:50:44;9.30;88.60
84176;DHT22;74306;40.114;18.304;2023-12-28T05:53:13;9.30;88.70
84176;DHT22;74306;40.114;18.304;2023-12-28T05:55:43;9.30;88.60
84176;DHT22;74306;40.114;18.304;2023-12-28T05:58:13;9.30;88.70
84176;DHT22;74306;40.114;18.304;2023-12-28T06:00:43;9.30;89.00
84176;DHT22;74306;40.114;18.304;2023-12-28T06:03:14;9.40;88.70
84176;DHT22;74306;40.114;18.304;2023-12-28T06:05:43;9.40;88.70
84176;DHT22;74306;40.114;18.304;2023-12-28T06:08:13;9.40;88.80
84176;DHT22;74306;40.114;18.304;2023-12-28T06:10:42;9.40;89.10
84176;DHT22;74306;40.114;18.304;2023-12-28T06:13:11;9.40;89.20
84176;DHT22;74306;40.114;18.304;2023-12-28T06:15:42;9.40;89.40
84176;DHT22;74306;40.114;18.304;2023-12-28T06:18:12;9.50;89.50
84176;DHT22;74306;40.114;18.304;2023-12-28T06:20:41;9.60;89.50
84176;DHT22;74306;40.114;18.304;2023-12-28T06:23:10;9.50;89.60
84176;DHT22;74306;40.114;18.304;2023-12-28T06:25:40;9.60;89.40
84176;DHT22;74306;40.114;18.304;2023-12-28T06:28:09;9.60;89.60
84176;DHT22;74306;40.114;18.304;2023-12-28T06:30:38;9.50;89.50
84176;DHT22;74306;40.114;18.304;2023-12-28T06:33:10;9.60;89.60
84176;DHT22;74306;40.114;18.304;2023-12-28T06:35:40;9.70;89.60
84176;DHT22;74306;40.114;18.304;2023-12-28T06:38:09;9.50;89.50
84176;DHT22;74306;40.114;18.304;2023-12-28T06:40:38;9.60;89.50
84176;DHT22;74306;40.114;18.304;2023-12-28T06:43:08;9.60;89.60
84176;DHT22;74306;40.114;18.304;2023-12-28T06:45:37;9.70;89.60
84176;DHT22;74306;40.114;18.304;2023-12-28T06:48:07;9.80;89.20
84176;DHT22;74306;40.114;18.304;2023-12-28T06:50:37;9.70;89.30
84176;DHT22;74306;40.114;18.304;2023-12-28T06:53:07;9.80;89.20
84176;DHT22;74306;40.114;18.304;2023-12-28T06:55:36;9.80;89.20
84176;DHT22;74306;40.114;18.304;2023-12-28T06:58:05;9.80;89.30
84176;DHT22;74306;40.114;18.304;2023-12-28T07:00:35;9.80;89.40
84176;DHT22;74306;40.114;18.304;2023-12-28T07:03:04;9.70;89.30
84176;DHT22;74306;40.114;18.304;2023-12-28T07:05:34;9.70;89.40
84176;DHT22;74306;40.114;18.304;2023-12-28T07:08:05;9.70;89.70
84176;DHT22;74306;40.114;18.304;2023-12-28T07:10:34;9.80;89.40
84176;DHT22;74306;40.114;18.304;2023-12-28T07:13:04;9.80;89.10
84176;DHT22;74306;40.114;18.304;2023-12-28T07:15:33;9.80;89.00
84176;DHT22;74306;40.114;18.304;2023-12-28T07:18:04;9.80;89.30
84176;DHT22;74306;40.114;18.304;2023-12-28T07:20:33;9.80;89.40
84176;DHT22;74306;40.114;18.304;2023-12-28T07:23:04;9.80;89.20
84176;DHT22;74306;40.114;18.304;2023-12-28T07:25:33;9.70;89.40
84176;DHT22;74306;40.114;18.304;2023-12-28T07:28:03;9.80;89.30
84176;DHT22;74306;40.114;18.304;2023-12-28T07:30:32;9.80;89.20
84176;DHT22;74306;40.114;18.304;2023-12-28T07:33:01;10.00;89.10
84176;DHT22;74306;40.114;18.304;2023-12-28T07:35:32;10.00;88.80
84176;DHT22;74306;40.114;18.304;2023-12-28T07:38:01;10.00;88.60
84176;DHT22;74306;40.114;18.304;2023-12-28T07:40:32;10.00;88.70
84176;DHT22;74306;40.114;18.304;2023-12-28T07:43:01;10.00;88.90
84176;DHT22;74306;40.114;18.304;2023-12-28T07:45:31;10.10;89.00
84176;DHT22;74306;40.114;18.304;2023-12-28T07:48:00;10.30;89.00
84176;DHT22;74306;40.114;18.304;2023-12-28T07:50:30;10.20;88.80
84176;DHT22;74306;40.114;18.304;2023-12-28T07:52:59;10.40;88.90
84176;DHT22;74306;40.114;18.304;2023-12-28T07:55:29;10.60;88.70
84176;DHT22;74306;40.114;18.304;2023-12-28T07:57:59;10.70;88.50
84176;DHT22;74306;40.114;18.304;2023-12-28T08:00:29;10.80;88.60
84176;DHT22;74306;40.114;18.304;2023-12-28T08:02:58;10.80;88.60
84176;DHT22;74306;40.114;18.304;2023-12-28T08:05:27;11.10;88.60
84176;DHT22;74306;40.114;18.304;2023-12-28T08:07:57;11.30;87.60
84176;DHT22;74306;40.114;18.304;2023-12-28T08:10:26;11.10;87.60
84176;DHT22;74306;40.114;18.304;2023-12-28T08:12:56;11.10;87.90
84176;DHT22;74306;40.114;18.304;2023-12-28T08:15:26;11.20;87.70
84176;DHT22;74306;40.114;18.304;2023-12-28T08:17:56;11.30;87.70
84176;DHT22;74306;40.114;18.304;2023-12-28T08:20:25;11.10;87.70
84176;DHT22;74306;40.114;18.304;2023-12-28T08:22:54;11.10;88.30
84176;DHT22;74306;40.114;18.304;2023-12-28T08:25:28;11.30;88.60
84176;DHT22;74306;40.114;18.304;2023-12-28T08:27:56;11.40;88.20
84176;DHT22;74306;40.114;18.304;2023-12-28T08:30:27;11.40;88.30
84176;DHT22;74306;40.114;18.304;2023-12-28T08:32:57;11.40;88.20
84176;DHT22;74306;40.114;18.304;2023-12-28T08:35:26;11.70;88.00
84176;DHT22;74306;40.114;18.304;2023-12-28T08:37:55;11.70;88.00
84176;DHT22;74306;40.114;18.304;2023-12-28T08:40:25;11.80;88.30
84176;DHT22;74306;40.114;18.304;2023-12-28T08:42:54;12.00;87.70
84176;DHT22;74306;40.114;18.304;2023-12-28T08:45:25;12.20;87.80
84176;DHT22;74306;40.114;18.304;2023-12-28T08:47:57;12.20;87.50
84176;DHT22;74306;40.114;18.304;2023-12-28T08:50:26;12.30;88.10
84176;DHT22;74306;40.114;18.304;2023-12-28T08:52:55;12.50;87.70
84176;DHT22;74306;40.114;18.304;2023-12-28T08:55:25;12.80;88.20
84176;DHT22;74306;40.114;18.304;2023-12-28T08:57:54;13.10;86.70
84176;DHT22;74306;40.114;18.304;2023-12-28T09:00:24;13.30;85.70
84176;DHT22;74306;40.114;18.304;2023-12-28T09:02:53;13.30;86.10
84176;DHT22;74306;40.114;18.304;2023-12-28T09:05:24;13.50;86.00
84176;DHT22;74306;40.114;18.304;2023-12-28T09:07:53;13.80;86.20
84176;DHT22;74306;40.114;18.304;2023-12-28T09:10:23;13.80;85.70
84176;DHT22;74306;40.114;18.304;2023-12-28T09:12:52;13.90;86.20
84176;DHT22;74306;40.114;18.304;2023-12-28T09:15:21;14.20;86.20
84176;DHT22;74306;40.114;18.304;2023-12-28T09:17:51;14.20;85.60
84176;DHT22;74306;40.114;18.304;2023-12-28T09:20:20;14.30;85.30
84176;DHT22;74306;40.114;18.304;2023-12-28T09:22:51;14.40;84.90
84176;DHT22;74306;40.114;18.304;2023-12-28T09:25:24;14.30;84.90
84176;DHT22;74306;40.114;18.304;2023-12-28T09:27:53;14.30;84.70
84176;DHT22;74306;40.114;18.304;2023-12-28T09:30:23;14.30;85.00
84176;DHT22;74306;40.114;18.304;2023-12-28T09:32:52;14.30;84.50
84176;DHT22;74306;40.114;18.304;2023-12-28T09:35:23;14.00;85.20
84176;DHT22;74306;40.114;18.304;2023-12-28T09:37:54;13.90;84.90
84176;DHT22;74306;40.114;18.304;2023-12-28T09:40:24;13.90;85.30
84176;DHT22;74306;40.114;18.304;2023-12-28T09:43:10;14.00;85.50
84176;DHT22;74306;40.114;18.304;2023-12-28T09:45:46;14.00;84.90
84176;DHT22;74306;40.114;18.304;2023-12-28T09:48:16;14.10;85.30
84176;DHT22;74306;40.114;18.304;2023-12-28T09:50:49;14.20;85.00
84176;DHT22;74306;40.114;18.304;2023-12-28T09:53:20;14.40;85.40
84176;DHT22;74306;40.114;18.304;2023-12-28T09:55:51;14.80;85.20
84176;DHT22;74306;40.114;18.304;2023-12-28T09:58:22;15.50;85.10
84176;DHT22;74306;40.114;18.304;2023-12-28T10:00:51;16.30;82.70
84176;DHT22;74306;40.114;18.304;2023-12-28T10:03:20;16.80;82.10
84176;DHT22;74306;40.114;18.304;2023-12-28T10:05:50;17.50;78.90
84176;DHT22;74306;40.114;18.304;2023-12-28T10:08:21;18.30;80.60
84176;DHT22;74306;40.114;18.304;2023-12-28T10:10:50;18.90;77.30
84176;DHT22;74306;40.114;18.304;2023-12-28T10:13:22;19.30;75.70
84176;DHT22;74306;40.114;18.304;2023-12-28T10:15:51;19.80;75.00
84176;DHT22;74306;40.114;18.304;2023-12-28T10:18:21;20.50;73.40
84176;DHT22;74306;40.114;18.304;2023-12-28T10:20:51;21.20;75.20
84176;DHT22;74306;40.114;18.304;2023-12-28T10:23:22;21.60;67.30
84176;DHT22;74306;40.114;18.304;2023-12-28T10:25:51;21.60;69.60
84176;DHT22;74306;40.114;18.304;2023-12-28T10:28:22;21.20;69.20
84176;DHT22;74306;40.114;18.304;2023-12-28T10:30:54;21.40;65.10
84176;DHT22;74306;40.114;18.304;2023-12-28T10:33:24;21.30;66.30
84176;DHT22;74306;40.114;18.304;2023-12-28T10:35:57;20.70;65.00
84176;DHT22;74306;40.114;18.304;2023-12-28T10:38:31;20.00;66.30
84176;DHT22;74306;40.114;18.304;2023-12-28T10:41:04;19.50;66.80
84176;DHT22;74306;40.114;18.304;2023-12-28T10:43:42;20.40;68.70
84176;DHT22;74306;40.114;18.304;2023-12-28T10:46:18;21.70;65.20
84176;DHT22;74306;40.114;18.304;2023-12-28T10:48:52;22.20;58.80
84176;DHT22;74306;40.114;18.304;2023-12-28T10:51:24;22.50;58.20
84176;DHT22;74306;40.114;18.304;2023-12-28T10:54:03;22.90;57.70
84176;DHT22;74306;40.114;18.304;2023-12-28T10:56:41;24.10;55.20
84176;DHT22;74306;40.114;18.304;2023-12-28T10:59:19;24.60;52.20
84176;DHT22;74306;40.114;18.304;2023-12-28T11:01:55;25.30;49.40
84176;DHT22;74306;40.114;18.304;2023-12-28T11:04:34;25.70;49.20
84176;DHT22;74306;40.114;18.304;2023-12-28T11:07:07;26.30;48.60
84176;DHT22;74306;40.114;18.304;2023-12-28T11:09:41;25.80;46.30
84176;DHT22;74306;40.114;18.304;2023-12-28T11:12:11;25.50;47.90
84176;DHT22;74306;40.114;18.304;2023-12-28T11:14:42;24.60;49.00
84176;DHT22;74306;40.114;18.304;2023-12-28T11:17:11;23.30;50.10
84176;DHT22;74306;40.114;18.304;2023-12-28T11:19:42;22.10;53.40
84176;DHT22;74306;40.114;18.304;2023-12-28T11:22:12;21.40;54.60
84176;DHT22;74306;40.114;18.304;2023-12-28T11:24:44;20.80;56.40
84176;DHT22;74306;40.114;18.304;2023-12-28T11:27:14;20.30;57.70
84176;DHT22;74306;40.114;18.304;2023-12-28T11:29:44;19.80;59.30
84176;DHT22;74306;40.114;18.304;2023-12-28T11:32:16;19.50;60.20
84176;DHT22;74306;40.114;18.304;2023-12-28T11:34:46;19.20;61.30
84176;DHT22;74306;40.114;18.304;2023-12-28T11:37:26;19.00;62.00
84176;DHT22;74306;40.114;18.304;2023-12-28T11:39:58;18.80;62.60
84176;DHT22;74306;40.114;18.304;2023-12-28T11:42:29;18.60;63.20
84176;DHT22;74306;40.114;18.304;2023-12-28T11:44:59;18.40;64.00
84176;DHT22;74306;40.114;18.304;2023-12-28T11:47:29;18.30;64.60
84176;DHT22;74306;40.114;18.304;2023-12-28T11:50:06;18.20;65.10
84176;DHT22;74306;40.114;18.304;2023-12-28T11:52:36;18.70;64.80
84176;DHT22;74306;40.114;18.304;2023-12-28T11:55:07;19.20;63.40
84176;DHT22;74306;40.114;18.304;2023-12-28T11:57:37;19.60;62.80
84176;DHT22;74306;40.114;18.304;2023-12-28T12:00:08;19.50;61.20
84176;DHT22;74306;40.114;18.304;2023-12-28T12:02:42;19.40;61.20
84176;DHT22;74306;40.114;18.304;2023-12-28T12:05:12;19.30;61.70
84176;DHT22;74306;40.114;18.304;2023-12-28T12:07:43;19.10;61.40
84176;DHT22;74306;40.114;18.304;2023-12-28T12:10:16;18.90;61.10
84176;DHT22;74306;40.114;18.304;2023-12-28T12:12:45;18.80;60.70
84176;DHT22;74306;40.114;18.304;2023-12-28T12:15:16;18.70;58.90
84176;DHT22;74306;40.114;18.304;2023-12-28T12:17:46;18.40;59.30
84176;DHT22;74306;40.114;18.304;2023-12-28T12:20:16;18.20;59.80
84176;DHT22;74306;40.114;18.304;2023-12-28T12:22:46;18.10;60.10
84176;DHT22;74306;40.114;18.304;2023-12-28T12:25:17;18.10;60.90
84176;DHT22;74306;40.114;18.304;2023-12-28T12:27:47;18.10;61.20
84176;DHT22;74306;40.114;18.304;2023-12-28T12:30:17;18.20;61.40
84176;DHT22;74306;40.114;18.304;2023-12-28T12:32:47;18.40;61.00
84176;DHT22;74306;40.114;18.304;2023-12-28T12:35:17;18.70;61.00
84176;DHT22;74306;40.114;18.304;2023-12-28T12:37:49;18.90;60.90
84176;DHT22;74306;40.114;18.304;2023-12-28T12:40:20;19.10;60.50
84176;DHT22;74306;40.114;18.304;2023-12-28T12:42:53;19.10;60.40
84176;DHT22;74306;40.114;18.304;2023-12-28T12:45:24;19.30;59.90
84176;DHT22;74306;40.114;18.304;2023-12-28T12:47:53;18.80;58.90
84176;DHT22;74306;40.114;18.304;2023-12-28T12:50:23;18.80;59.30
84176;DHT22;74306;40.114;18.304;2023-12-28T12:52:52;18.70;59.30
84176;DHT22;74306;40.114;18.304;2023-12-28T12:55:23;18.60;59.90
84176;DHT22;74306;40.114;18.304;2023-12-28T12:57:53;17.90;60.80
84176;DHT22;74306;40.114;18.304;2023-12-28T13:00:24;17.90;60.90
84176;DHT22;74306;40.114;18.304;2023-12-28T13:02:53;17.60;60.50
84176;DHT22;74306;40.114;18.304;2023-12-28T13:05:24;17.40;62.10
84176;DHT22;74306;40.114;18.304;2023-12-28T13:07:54;17.60;62.90
84176;DHT22;74306;40.114;18.304;2023-12-28T13:10:25;17.70;64.10
84176;DHT22;74306;40.114;18.304;2023-12-28T13:12:55;17.60;65.40
84176;DHT22;74306;40.114;18.304;2023-12-28T13:15:24;17.70;65.70
84176;DHT22;74306;40.114;18.304;2023-12-28T13:17:54;17.70;66.00
84176;DHT22;74306;40.114;18.304;2023-12-28T13:20:23;17.60;67.10
84176;DHT22;74306;40.114;18.304;2023-12-28T13:22:52;17.40;68.00
84176;DHT22;74306;40.114;18.304;2023-12-28T13:25:23;17.40;68.20
84176;DHT22;74306;40.114;18.304;2023-12-28T13:27:53;17.40;68.20
84176;DHT22;74306;40.114;18.304;2023-12-28T13:30:22;17.50;68.20
84176;DHT22;74306;40.114;18.304;2023-12-28T13:32:56;17.40;68.40
84176;DHT22;74306;40.114;18.304;2023-12-28T13:35:25;17.30;68.70
84176;DHT22;74306;40.114;18.304;2023-12-28T13:37:55;17.40;68.50
84176;DHT22;74306;40.114;18.304;2023-12-28T13:40:25;17.40;68.60
84176;DHT22;74306;40.114;18.304;2023-12-28T13:42:54;17.40;68.30
84176;DHT22;74306;40.114;18.304;2023-12-28T13:45:24;17.30;68.60
84176;DHT22;74306;40.114;18.304;2023-12-28T13:47:53;17.30;68.80
84176;DHT22;74306;40.114;18.304;2023-12-28T13:50:23;17.30;69.00
84176;DHT22;74306;40.114;18.304;2023-12-28T13:52:52;17.30;68.90
84176;DHT22;74306;40.114;18.304;2023-12-28T13:55:21;17.30;69.20
84176;DHT22;74306;40.114;18.304;2023-12-28T13:57:52;17.10;69.40
84176;DHT22;74306;40.114;18.304;2023-12-28T14:00:21;17.00;69.70
84176;DHT22;74306;40.114;18.304;2023-12-28T14:02:51;16.80;70.10
84176;DHT22;74306;40.114;18.304;2023-12-28T14:05:20;16.80;70.30
84176;DHT22;74306;40.114;18.304;2023-12-28T14:07:51;16.80;70.50
84176;DHT22;74306;40.114;18.304;2023-12-28T14:10:21;16.70;70.70
84176;DHT22;74306;40.114;18.304;2023-12-28T14:12:51;16.70;70.70
84176;DHT22;74306;40.114;18.304;2023-12-28T14:15:21;16.80;70.70
84176;DHT22;74306;40.114;18.304;2023-12-28T14:17:50;16.70;70.80
84176;DHT22;74306;40.114;18.304;2023-12-28T14:20:19;16.60;70.70
84176;DHT22;74306;40.114;18.304;2023-12-28T14:22:49;16.60;71.20
84176;DHT22;74306;40.114;18.304;2023-12-28T14:25:19;16.50;71.30
84176;DHT22;74306;40.114;18.304;2023-12-28T14:27:49;16.40;71.40
84176;DHT22;74306;40.114;18.304;2023-12-28T14:30:22;16.40;71.40
84176;DHT22;74306;40.114;18.304;2023-12-28T14:32:52;16.30;71.80
84176;DHT22;74306;40.114;18.304;2023-12-28T14:35:22;16.20;72.00
84176;DHT22;74306;40.114;18.304;2023-12-28T14:37:53;16.10;72.20
84176;DHT22;74306;40.114;18.304;2023-12-28T14:40:22;16.10;72.50
84176;DHT22;74306;40.114;18.304;2023-12-28T14:42:51;16.10;72.80
84176;DHT22;74306;40.114;18.304;2023-12-28T14:45:22;16.10;72.90
84176;DHT22;74306;40.114;18.304;2023-12-28T14:47:51;16.10;72.90
84176;DHT22;74306;40.114;18.304;2023-12-28T14:50:21;16.00;73.10
84176;DHT22;74306;40.114;18.304;2023-12-28T14:52:50;16.00;73.00
84176;DHT22;74306;40.114;18.304;2023-12-28T14:55:19;16.00;73.30
84176;DHT22;74306;40.114;18.304;2023-12-28T14:57:51;15.90;73.30
84176;DHT22;74306;40.114;18.304;2023-12-28T15:00:22;15.80;73.50
84176;DHT22;74306;40.114;18.304;2023-12-28T15:02:51;15.80;73.50
84176;DHT22;74306;40.114;18.304;2023-12-28T15:05:20;15.80;73.90
84176;DHT22;74306;40.114;18.304;2023-12-28T15:07:50;15.70;73.90
84176;DHT22;74306;40.114;18.304;2023-12-28T15:10:20;15.70;74.00
84176;DHT22;74306;40.114;18.304;2023-12-28T15:12:50;15.70;74.20
84176;DHT22;74306;40.114;18.304;2023-12-28T15:15:22;15.70;74.40
84176;DHT22;74306;40.114;18.304;2023-12-28T15:17:52;15.60;74.30
84176;DHT22;74306;40.114;18.304;2023-12-28T15:20:23;15.60;74.50
84176;DHT22;74306;40.114;18.304;2023-12-28T15:22:53;15.50;74.80
84176;DHT22;74306;40.114;18.304;2023-12-28T15:25:22;15.40;75.00
84176;DHT22;74306;40.114;18.304;2023-12-28T15:27:51;15.40;75.10
84176;DHT22;74306;40.114;18.304;2023-12-28T15:30:22;15.30;75.40
84176;DHT22;74306;40.114;18.304;2023-12-28T15:32:52;15.30;75.60
84176;DHT22;74306;40.114;18.304;2023-12-28T15:35:21;15.30;75.80
84176;DHT22;74306;40.114;18.304;2023-12-28T15:37:50;15.30;75.90
84176;DHT22;74306;40.114;18.304;2023-12-28T15:40:19;15.30;75.90